Terminal Aerodrome Forecast
Issued by NWS Sterling, VA

Current Version | Previous Version | Graphics & Text | Print | Product List | Glossary On
Versions: 1 2 3 4 5 6 7 8 9 10 11 12 13 14 15 16 17 18 19 20 21 22 23 24 25 26 27 28 29 30 31
770
FTUS41 KLWX 030537
TAFIAD
TAF
KIAD 030537Z 0306/0412 03004KT 6SM -SHRA OVC008
     FM031600 36005KT P6SM -SHRA BKN015
     FM031900 36004KT P6SM -SHRA BKN025
     FM040000 04004KT P6SM BKN020
     FM040200 03004KT P6SM BKN008
     FM040900 VRB03KT 3SM BR BKN003=

USA.gov is the U.S. government's official web portal to all federal, state and local government web resources and services.